sensor_id;sensor_type;location;lat;lon;timestamp;pressure;altitude;pressure_sealevel;temperature;humidity
75192;BME280;63771;52.580;9.734;2023-06-10T00:00:36;101317.03;;;17.99;55.51
75192;BME280;63771;52.580;9.734;2023-06-10T00:03:01;101321.16;;;17.96;55.49
75192;BME280;63771;52.580;9.734;2023-06-10T00:05:27;101321.09;;;17.81;55.36
75192;BME280;63771;52.580;9.734;2023-06-10T00:07:55;101320.88;;;17.78;55.77
75192;BME280;63771;52.580;9.734;2023-06-10T00:10:21;101325.34;;;17.67;55.86
75192;BME280;63771;52.580;9.734;2023-06-10T00:12:47;101328.84;;;17.55;56.35
75192;BME280;63771;52.580;9.734;2023-06-10T00:15:12;101332.81;;;17.50;56.55
75192;BME280;63771;52.580;9.734;2023-06-10T00:17:37;101339.25;;;17.43;56.68
75192;BME280;63771;52.580;9.734;2023-06-10T00:20:06;101344.31;;;17.41;56.80
75192;BME280;63771;52.580;9.734;2023-06-10T00:22:34;101348.88;;;17.32;57.16
75192;BME280;63771;52.580;9.734;2023-06-10T00:24:59;101343.22;;;17.38;57.16
75192;BME280;63771;52.580;9.734;2023-06-10T00:27:24;101354.94;;;17.46;57.45
75192;BME280;63771;52.580;9.734;2023-06-10T00:29:51;101357.94;;;17.39;57.27
75192;BME280;63771;52.580;9.734;2023-06-10T00:32:17;101357.72;;;17.36;57.56
75192;BME280;63771;52.580;9.734;2023-06-10T00:34:42;101356.31;;;17.41;57.58
75192;BME280;63771;52.580;9.734;2023-06-10T00:37:07;101355.13;;;17.36;57.48
75192;BME280;63771;52.580;9.734;2023-06-10T00:39:32;101362.78;;;17.34;57.55
75192;BME280;63771;52.580;9.734;2023-06-10T00:41:58;101362.28;;;17.27;57.78
75192;BME280;63771;52.580;9.734;2023-06-10T00:44:23;101354.22;;;17.22;57.92
75192;BME280;63771;52.580;9.734;2023-06-10T00:46:48;101360.69;;;17.15;58.10
75192;BME280;63771;52.580;9.734;2023-06-10T00:49:16;101350.84;;;17.10;58.24
75192;BME280;63771;52.580;9.734;2023-06-10T00:51:42;101358.28;;;17.05;58.50
75192;BME280;63771;52.580;9.734;2023-06-10T00:54:07;101358.50;;;17.08;58.78
75192;BME280;63771;52.580;9.734;2023-06-10T00:56:33;101357.09;;;17.00;58.89
75192;BME280;63771;52.580;9.734;2023-06-10T00:59:00;101354.91;;;16.93;59.18
75192;BME280;63771;52.580;9.734;2023-06-10T01:01:25;101356.38;;;16.89;59.35
75192;BME280;63771;52.580;9.734;2023-06-10T01:03:51;101360.66;;;16.89;59.56
75192;BME280;63771;52.580;9.734;2023-06-10T01:06:33;101355.88;;;16.82;59.62
75192;BME280;63771;52.580;9.734;2023-06-10T01:14:34;101359.66;;;16.62;60.48
75192;BME280;63771;52.580;9.734;2023-06-10T01:17:00;101359.13;;;16.54;60.82
75192;BME280;63771;52.580;9.734;2023-06-10T01:19:26;101362.28;;;16.50;61.61
75192;BME280;63771;52.580;9.734;2023-06-10T01:21:51;101358.44;;;16.32;61.90
75192;BME280;63771;52.580;9.734;2023-06-10T01:24:17;101368.31;;;16.26;62.44
75192;BME280;63771;52.580;9.734;2023-06-10T01:26:43;101360.66;;;16.14;63.17
75192;BME280;63771;52.580;9.734;2023-06-10T01:29:20;101366.41;;;15.98;63.76
75192;BME280;63771;52.580;9.734;2023-06-10T01:32:01;101368.16;;;16.11;63.43
75192;BME280;63771;52.580;9.734;2023-06-10T01:34:31;101366.13;;;16.18;63.32
75192;BME280;63771;52.580;9.734;2023-06-10T01:36:56;101372.63;;;16.13;63.35
75192;BME280;63771;52.580;9.734;2023-06-10T01:39:24;101378.13;;;16.06;63.67
75192;BME280;63771;52.580;9.734;2023-06-10T01:41:51;101376.69;;;15.86;65.01
75192;BME280;63771;52.580;9.734;2023-06-10T01:44:21;101377.81;;;15.90;64.52
75192;BME280;63771;52.580;9.734;2023-06-10T01:46:46;101384.66;;;15.89;64.50
75192;BME280;63771;52.580;9.734;2023-06-10T01:49:12;101376.25;;;15.92;64.21
75192;BME280;63771;52.580;9.734;2023-06-10T01:51:38;101383.66;;;15.87;64.63
75192;BME280;63771;52.580;9.734;2023-06-10T01:54:03;101386.03;;;15.73;65.83
75192;BME280;63771;52.580;9.734;2023-06-10T01:56:28;101387.13;;;15.76;65.26
75192;BME280;63771;52.580;9.734;2023-06-10T01:58:54;101387.72;;;15.72;65.34
75192;BME280;63771;52.580;9.734;2023-06-10T02:01:24;101372.69;;;15.55;66.77
75192;BME280;63771;52.580;9.734;2023-06-10T02:03:49;101373.91;;;15.60;66.01
75192;BME280;63771;52.580;9.734;2023-06-10T02:06:15;101381.28;;;15.55;66.42
75192;BME280;63771;52.580;9.734;2023-06-10T02:08:40;101374.28;;;15.41;67.80
75192;BME280;63771;52.580;9.734;2023-06-10T02:11:05;101375.81;;;15.27;67.94
75192;BME280;63771;52.580;9.734;2023-06-10T02:13:32;101369.00;;;15.28;67.97
75192;BME280;63771;52.580;9.734;2023-06-10T02:15:57;101371.81;;;15.31;67.88
75192;BME280;63771;52.580;9.734;2023-06-10T02:18:22;101379.19;;;15.38;67.50
75192;BME280;63771;52.580;9.734;2023-06-10T02:20:48;101384.66;;;15.31;67.81
75192;BME280;63771;52.580;9.734;2023-06-10T02:23:14;101390.03;;;15.34;67.36
75192;BME280;63771;52.580;9.734;2023-06-10T02:25:39;101389.25;;;15.35;67.26
75192;BME280;63771;52.580;9.734;2023-06-10T02:28:05;101402.66;;;15.31;67.75
75192;BME280;63771;52.580;9.734;2023-06-10T02:30:30;101406.47;;;15.36;67.82
75192;BME280;63771;52.580;9.734;2023-06-10T02:32:55;101406.47;;;15.36;67.36
75192;BME280;63771;52.580;9.734;2023-06-10T02:35:21;101407.81;;;15.31;67.84
75192;BME280;63771;52.580;9.734;2023-06-10T02:37:49;101410.47;;;15.21;69.21
75192;BME280;63771;52.580;9.734;2023-06-10T02:40:15;101415.03;;;15.13;69.54
75192;BME280;63771;52.580;9.734;2023-06-10T02:42:40;101412.69;;;15.04;70.18
75192;BME280;63771;52.580;9.734;2023-06-10T02:45:06;101418.72;;;14.93;70.48
75192;BME280;63771;52.580;9.734;2023-06-10T02:47:32;101418.28;;;14.99;69.73
75192;BME280;63771;52.580;9.734;2023-06-10T02:49:57;101425.41;;;15.03;69.94
75192;BME280;63771;52.580;9.734;2023-06-10T02:52:22;101424.75;;;15.05;69.67
75192;BME280;63771;52.580;9.734;2023-06-10T02:54:48;101427.88;;;15.01;69.56
75192;BME280;63771;52.580;9.734;2023-06-10T02:57:13;101419.38;;;15.02;69.27
75192;BME280;63771;52.580;9.734;2023-06-10T02:59:39;101422.28;;;14.95;69.72
75192;BME280;63771;52.580;9.734;2023-06-10T03:02:05;101427.53;;;14.97;69.42
75192;BME280;63771;52.580;9.734;2023-06-10T03:04:30;101427.16;;;14.92;69.83
75192;BME280;63771;52.580;9.734;2023-06-10T03:06:56;101428.97;;;14.93;69.15
75192;BME280;63771;52.580;9.734;2023-06-10T03:09:21;101423.34;;;14.87;69.64
75192;BME280;63771;52.580;9.734;2023-06-10T03:11:46;101431.03;;;14.75;70.61
75192;BME280;63771;52.580;9.734;2023-06-10T03:14:12;101436.91;;;14.63;71.76
75192;BME280;63771;52.580;9.734;2023-06-10T03:16:37;101433.28;;;14.49;71.87
75192;BME280;63771;52.580;9.734;2023-06-10T03:19:05;101429.91;;;14.50;72.08
75192;BME280;63771;52.580;9.734;2023-06-10T03:21:31;101434.16;;;14.49;71.81
75192;BME280;63771;52.580;9.734;2023-06-10T03:23:56;101442.94;;;14.41;72.28
75192;BME280;63771;52.580;9.734;2023-06-10T03:26:21;101442.66;;;14.38;71.81
75192;BME280;63771;52.580;9.734;2023-06-10T03:28:47;101446.06;;;14.27;73.62
75192;BME280;63771;52.580;9.734;2023-06-10T03:31:12;101446.06;;;14.27;73.18
75192;BME280;63771;52.580;9.734;2023-06-10T03:33:38;101449.66;;;14.29;73.03
75192;BME280;63771;52.580;9.734;2023-06-10T03:36:04;101442.25;;;14.22;73.68
75192;BME280;63771;52.580;9.734;2023-06-10T03:38:29;101448.44;;;14.14;74.50
75192;BME280;63771;52.580;9.734;2023-06-10T03:40:55;101453.88;;;14.06;75.25
75192;BME280;63771;52.580;9.734;2023-06-10T03:43:20;101451.78;;;14.13;74.46
75192;BME280;63771;52.580;9.734;2023-06-10T03:45:46;101441.22;;;13.88;76.33
75192;BME280;63771;52.580;9.734;2023-06-10T03:48:13;101438.50;;;13.96;75.13
75192;BME280;63771;52.580;9.734;2023-06-10T03:50:38;101434.75;;;14.03;74.72
75192;BME280;63771;52.580;9.734;2023-06-10T03:53:03;101432.34;;;14.04;75.38
75192;BME280;63771;52.580;9.734;2023-06-10T03:55:29;101442.81;;;14.07;74.53
75192;BME280;63771;52.580;9.734;2023-06-10T03:57:54;101438.50;;;13.96;76.82
75192;BME280;63771;52.580;9.734;2023-06-10T04:00:20;101444.28;;;13.94;75.81
75192;BME280;63771;52.580;9.734;2023-06-10T04:02:47;101444.69;;;13.88;76.96
75192;BME280;63771;52.580;9.734;2023-06-10T04:05:15;101443.22;;;14.02;75.75
75192;BME280;63771;52.580;9.734;2023-06-10T04:07:41;101442.38;;;13.91;77.34
75192;BME280;63771;52.580;9.734;2023-06-10T04:10:08;101446.50;;;13.89;77.78
75192;BME280;63771;52.580;9.734;2023-06-10T04:12:34;101443.94;;;13.89;77.91
75192;BME280;63771;52.580;9.734;2023-06-10T04:14:59;101441.56;;;14.02;77.30
75192;BME280;63771;52.580;9.734;2023-06-10T04:17:25;101444.09;;;14.13;76.86
75192;BME280;63771;52.580;9.734;2023-06-10T04:19:51;101450.00;;;14.12;76.59
75192;BME280;63771;52.580;9.734;2023-06-10T04:22:17;101454.75;;;14.07;77.49
75192;BME280;63771;52.580;9.734;2023-06-10T04:24:43;101454.19;;;14.21;75.90
75192;BME280;63771;52.580;9.734;2023-06-10T04:27:08;101431.50;;;14.16;75.36
75192;BME280;63771;52.580;9.734;2023-06-10T04:29:33;101450.47;;;14.18;76.62
75192;BME280;63771;52.580;9.734;2023-06-10T04:31:59;101442.41;;;14.13;77.26
75192;BME280;63771;52.580;9.734;2023-06-10T04:34:25;101447.13;;;14.19;76.82
75192;BME280;63771;52.580;9.734;2023-06-10T04:36:50;101464.81;;;14.26;76.13
75192;BME280;63771;52.580;9.734;2023-06-10T04:39:16;101463.22;;;14.38;75.80
75192;BME280;63771;52.580;9.734;2023-06-10T04:41:42;101460.84;;;14.19;77.53
75192;BME280;63771;52.580;9.734;2023-06-10T04:44:07;101454.81;;;14.19;77.27
75192;BME280;63771;52.580;9.734;2023-06-10T04:46:32;101466.34;;;14.24;77.02
75192;BME280;63771;52.580;9.734;2023-06-10T04:48:58;101452.47;;;14.32;76.59
75192;BME280;63771;52.580;9.734;2023-06-10T04:51:23;101449.91;;;14.32;77.17
75192;BME280;63771;52.580;9.734;2023-06-10T04:53:48;101463.31;;;14.18;77.69
75192;BME280;63771;52.580;9.734;2023-06-10T04:56:14;101461.09;;;14.22;77.32
75192;BME280;63771;52.580;9.734;2023-06-10T04:58:40;101456.03;;;14.34;76.22
75192;BME280;63771;52.580;9.734;2023-06-10T05:01:05;101464.56;;;14.23;nan
75192;BME280;63771;52.580;9.734;2023-06-10T05:03:31;101461.16;;;14.34;75.82
75192;BME280;63771;52.580;9.734;2023-06-10T05:05:56;101454.25;;;14.33;76.32
75192;BME280;63771;52.580;9.734;2023-06-10T05:08:21;101455.97;;;14.44;76.49
75192;BME280;63771;52.580;9.734;2023-06-10T05:10:47;101455.44;;;14.26;77.62
75192;BME280;63771;52.580;9.734;2023-06-10T05:13:12;101461.06;;;14.32;78.02
75192;BME280;63771;52.580;9.734;2023-06-10T05:15:37;101456.56;;;14.30;77.11
75192;BME280;63771;52.580;9.734;2023-06-10T05:18:03;101453.00;;;14.28;77.59
75192;BME280;63771;52.580;9.734;2023-06-10T05:20:28;101447.50;;;14.23;78.05
75192;BME280;63771;52.580;9.734;2023-06-10T05:22:54;101470.59;;;14.45;76.32
75192;BME280;63771;52.580;9.734;2023-06-10T05:25:19;101466.22;;;14.54;76.15
75192;BME280;63771;52.580;9.734;2023-06-10T05:27:44;101462.13;;;14.56;76.98
75192;BME280;63771;52.580;9.734;2023-06-10T05:30:10;101471.47;;;14.56;76.69
75192;BME280;63771;52.580;9.734;2023-06-10T05:32:37;101462.13;;;14.56;76.93
75192;BME280;63771;52.580;9.734;2023-06-10T05:35:02;101462.13;;;14.56;76.91
75192;BME280;63771;52.580;9.734;2023-06-10T05:37:29;101457.31;;;14.61;76.08
75192;BME280;63771;52.580;9.734;2023-06-10T05:39:55;101464.69;;;14.78;74.74
75192;BME280;63771;52.580;9.734;2023-06-10T05:42:20;101467.81;;;14.86;75.61
75192;BME280;63771;52.580;9.734;2023-06-10T05:44:45;101460.78;;;14.83;76.21
75192;BME280;63771;52.580;9.734;2023-06-10T05:47:11;101463.00;;;14.79;76.31
75192;BME280;63771;52.580;9.734;2023-06-10T05:49:36;101457.53;;;14.86;75.64
75192;BME280;63771;52.580;9.734;2023-06-10T05:52:01;101454.16;;;14.75;75.96
75192;BME280;63771;52.580;9.734;2023-06-10T05:54:27;101454.31;;;14.67;76.75
75192;BME280;63771;52.580;9.734;2023-06-10T05:56:52;101458.41;;;14.75;76.58
75192;BME280;63771;52.580;9.734;2023-06-10T05:59:17;101463.88;;;14.79;76.33
75192;BME280;63771;52.580;9.734;2023-06-10T06:01:43;101463.78;;;14.78;76.33
75192;BME280;63771;52.580;9.734;2023-06-10T06:04:08;101466.78;;;14.72;76.40
75192;BME280;63771;52.580;9.734;2023-06-10T06:06:35;101468.41;;;14.72;76.35
75192;BME280;63771;52.580;9.734;2023-06-10T06:09:01;101464.69;;;14.78;75.81
75192;BME280;63771;52.580;9.734;2023-06-10T06:11:26;101466.69;;;14.82;75.39
75192;BME280;63771;52.580;9.734;2023-06-10T06:13:52;101459.91;;;14.83;75.54
75192;BME280;63771;52.580;9.734;2023-06-10T06:16:17;101452.66;;;14.89;75.07
75192;BME280;63771;52.580;9.734;2023-06-10T06:18:43;101449.75;;;14.96;75.18
75192;BME280;63771;52.580;9.734;2023-06-10T06:21:09;101454.28;;;15.10;74.51
75192;BME280;63771;52.580;9.734;2023-06-10T06:23:34;101443.19;;;15.11;75.24
75192;BME280;63771;52.580;9.734;2023-06-10T06:25:59;101442.69;;;15.27;74.07
75192;BME280;63771;52.580;9.734;2023-06-10T06:28:25;101445.38;;;15.40;73.66
75192;BME280;63771;52.580;9.734;2023-06-10T06:30:54;101448.16;;;15.44;73.91
75192;BME280;63771;52.580;9.734;2023-06-10T06:33:19;101452.66;;;15.46;73.61
75192;BME280;63771;52.580;9.734;2023-06-10T06:35:45;101438.22;;;15.48;73.87
75192;BME280;63771;52.580;9.734;2023-06-10T06:38:10;101441.78;;;15.50;74.20
75192;BME280;63771;52.580;9.734;2023-06-10T06:40:35;101445.16;;;15.49;73.98
75192;BME280;63771;52.580;9.734;2023-06-10T06:43:01;101454.53;;;15.49;73.28
75192;BME280;63771;52.580;9.734;2023-06-10T06:45:26;101447.19;;;15.53;74.11
75192;BME280;63771;52.580;9.734;2023-06-10T06:47:51;101446.94;;;15.50;73.38
75192;BME280;63771;52.580;9.734;2023-06-10T06:50:17;101449.75;;;15.53;72.94
75192;BME280;63771;52.580;9.734;2023-06-10T06:52:42;101453.56;;;15.58;74.09
75192;BME280;63771;52.580;9.734;2023-06-10T06:55:07;101447.22;;;15.65;73.50
75192;BME280;63771;52.580;9.734;2023-06-10T06:57:33;101451.44;;;15.76;71.47
75192;BME280;63771;52.580;9.734;2023-06-10T06:59:58;101449.44;;;15.84;72.26
75192;BME280;63771;52.580;9.734;2023-06-10T07:02:23;101448.75;;;15.86;72.45
75192;BME280;63771;52.580;9.734;2023-06-10T07:04:49;101443.31;;;15.82;72.50
75192;BME280;63771;52.580;9.734;2023-06-10T07:07:15;101451.22;;;15.85;72.53
75192;BME280;63771;52.580;9.734;2023-06-10T07:09:40;101455.38;;;15.95;72.51
75192;BME280;63771;52.580;9.734;2023-06-10T07:12:06;101463.75;;;16.04;72.64
75192;BME280;63771;52.580;9.734;2023-06-10T07:14:31;101458.34;;;16.12;72.67
75192;BME280;63771;52.580;9.734;2023-06-10T07:16:57;101450.31;;;16.20;71.42
75192;BME280;63771;52.580;9.734;2023-06-10T07:19:22;101453.53;;;16.29;71.35
75192;BME280;63771;52.580;9.734;2023-06-10T07:21:47;101458.31;;;16.36;70.17
75192;BME280;63771;52.580;9.734;2023-06-10T07:24:13;101461.22;;;16.40;71.53
75192;BME280;63771;52.580;9.734;2023-06-10T07:26:38;101452.22;;;16.47;70.43
75192;BME280;63771;52.580;9.734;2023-06-10T07:29:03;101457.81;;;16.53;69.84
75192;BME280;63771;52.580;9.734;2023-06-10T07:31:29;101447.72;;;16.56;69.92
75192;BME280;63771;52.580;9.734;2023-06-10T07:33:54;101449.94;;;16.63;69.92
75192;BME280;63771;52.580;9.734;2023-06-10T07:36:19;101451.94;;;16.67;70.17
75192;BME280;63771;52.580;9.734;2023-06-10T07:38:45;101449.00;;;16.75;69.38
75192;BME280;63771;52.580;9.734;2023-06-10T07:41:10;101447.06;;;16.84;69.34
75192;BME280;63771;52.580;9.734;2023-06-10T07:43:36;101441.94;;;16.84;69.15
75192;BME280;63771;52.580;9.734;2023-06-10T07:46:02;101444.44;;;16.95;69.26
75192;BME280;63771;52.580;9.734;2023-06-10T07:48:27;101450.13;;;17.03;69.90
75192;BME280;63771;52.580;9.734;2023-06-10T07:50:52;101458.50;;;17.12;68.63
75192;BME280;63771;52.580;9.734;2023-06-10T07:53:18;101457.13;;;17.17;68.14
75192;BME280;63771;52.580;9.734;2023-06-10T07:55:43;101446.09;;;17.20;67.09
75192;BME280;63771;52.580;9.734;2023-06-10T07:58:08;101445.38;;;17.22;66.99
75192;BME280;63771;52.580;9.734;2023-06-10T08:00:34;101441.44;;;17.28;67.70
75192;BME280;63771;52.580;9.734;2023-06-10T08:02:59;101446.22;;;17.35;67.40
75192;BME280;63771;52.580;9.734;2023-06-10T08:05:24;101447.34;;;17.38;67.48
75192;BME280;63771;52.580;9.734;2023-06-10T08:07:50;101445.16;;;17.44;67.70
75192;BME280;63771;52.580;9.734;2023-06-10T08:10:15;101437.72;;;17.49;67.90
75192;BME280;63771;52.580;9.734;2023-06-10T08:12:40;101432.66;;;17.51;67.73
75192;BME280;63771;52.580;9.734;2023-06-10T08:15:06;101439.31;;;17.60;67.85
75192;BME280;63771;52.580;9.734;2023-06-10T08:17:31;101431.06;;;17.66;67.59
75192;BME280;63771;52.580;9.734;2023-06-10T08:19:57;101427.31;;;17.74;66.93
75192;BME280;63771;52.580;9.734;2023-06-10T08:22:22;101431.97;;;17.80;67.00
75192;BME280;63771;52.580;9.734;2023-06-10T08:24:47;101431.28;;;17.82;66.95
75192;BME280;63771;52.580;9.734;2023-06-10T08:27:13;101439.50;;;17.90;66.76
75192;BME280;63771;52.580;9.734;2023-06-10T08:29:39;101436.53;;;17.97;67.22
75192;BME280;63771;52.580;9.734;2023-06-10T08:32:04;101439.50;;;18.03;67.04
75192;BME280;63771;52.580;9.734;2023-06-10T08:34:33;101436.63;;;18.12;65.89
75192;BME280;63771;52.580;9.734;2023-06-10T08:37:00;101437.09;;;18.19;64.93
75192;BME280;63771;52.580;9.734;2023-06-10T08:39:25;101431.13;;;18.20;65.16
75192;BME280;63771;52.580;9.734;2023-06-10T08:42:03;101440.94;;;18.26;65.83
75192;BME280;63771;52.580;9.734;2023-06-10T08:44:31;101431.56;;;18.41;65.18
75192;BME280;63771;52.580;9.734;2023-06-10T08:47:02;101434.44;;;18.46;63.74
75192;BME280;63771;52.580;9.734;2023-06-10T08:49:34;101434.72;;;18.50;64.44
75192;BME280;63771;52.580;9.734;2023-06-10T08:52:03;101420.38;;;18.56;62.51
75192;BME280;63771;52.580;9.734;2023-06-10T08:54:32;101428.41;;;18.60;62.03
75192;BME280;63771;52.580;9.734;2023-06-10T08:57:00;101432.19;;;18.65;62.23
75192;BME280;63771;52.580;9.734;2023-06-10T08:59:29;101422.03;;;18.68;64.00
75192;BME280;63771;52.580;9.734;2023-06-10T09:01:54;101427.59;;;18.74;64.14
75192;BME280;63771;52.580;9.734;2023-06-10T09:04:20;101422.78;;;18.81;63.90
75192;BME280;63771;52.580;9.734;2023-06-10T09:06:46;101418.78;;;18.86;63.73
75192;BME280;63771;52.580;9.734;2023-06-10T09:09:14;101411.56;;;18.95;61.21
75192;BME280;63771;52.580;9.734;2023-06-10T09:11:42;101414.06;;;19.08;61.71
75192;BME280;63771;52.580;9.734;2023-06-10T09:14:07;101405.16;;;19.18;60.80
75192;BME280;63771;52.580;9.734;2023-06-10T09:16:33;101410.97;;;19.28;60.31
75192;BME280;63771;52.580;9.734;2023-06-10T09:18:58;101403.53;;;19.35;60.69
75192;BME280;63771;52.580;9.734;2023-06-10T09:21:24;101392.84;;;19.43;59.90
75192;BME280;63771;52.580;9.734;2023-06-10T09:23:50;101399.44;;;19.53;58.81
75192;BME280;63771;52.580;9.734;2023-06-10T09:26:16;101396.03;;;19.54;59.11
75192;BME280;63771;52.580;9.734;2023-06-10T09:28:44;101391.56;;;19.66;58.60
75192;BME280;63771;52.580;9.734;2023-06-10T09:31:09;101397.25;;;19.75;56.21
75192;BME280;63771;52.580;9.734;2023-06-10T09:33:38;101396.53;;;19.78;57.89
75192;BME280;63771;52.580;9.734;2023-06-10T09:36:07;101396.34;;;19.90;57.99
75192;BME280;63771;52.580;9.734;2023-06-10T09:38:34;101396.66;;;19.96;57.10
75192;BME280;63771;52.580;9.734;2023-06-10T09:40:59;101396.63;;;20.11;54.98
75192;BME280;63771;52.580;9.734;2023-06-10T09:43:46;101390.69;;;20.13;56.04
75192;BME280;63771;52.580;9.734;2023-06-10T09:46:15;101390.44;;;20.25;54.99
75192;BME280;63771;52.580;9.734;2023-06-10T09:48:42;101382.84;;;20.44;52.57
75192;BME280;63771;52.580;9.734;2023-06-10T09:51:09;101380.53;;;20.49;53.54
75192;BME280;63771;52.580;9.734;2023-06-10T09:53:35;101386.03;;;20.71;53.64
75192;BME280;63771;52.580;9.734;2023-06-10T09:56:01;101383.94;;;20.98;51.72
75192;BME280;63771;52.580;9.734;2023-06-10T09:58:39;101380.38;;;20.96;51.41
75192;BME280;63771;52.580;9.734;2023-06-10T10:01:13;101383.03;;;20.98;53.61
75192;BME280;63771;52.580;9.734;2023-06-10T10:06:11;101378.97;;;21.03;55.27
75192;BME280;63771;52.580;9.734;2023-06-10T10:08:37;101385.34;;;21.26;51.83
75192;BME280;63771;52.580;9.734;2023-06-10T10:11:03;101381.53;;;21.35;52.03
75192;BME280;63771;52.580;9.734;2023-06-10T10:13:28;101383.13;;;21.33;52.98
75192;BME280;63771;52.580;9.734;2023-06-10T10:15:59;101379.06;;;21.39;52.25
75192;BME280;63771;52.580;9.734;2023-06-10T10:18:28;101379.88;;;21.38;52.94
75192;BME280;63771;52.580;9.734;2023-06-10T10:20:55;101375.81;;;21.43;52.96
75192;BME280;63771;52.580;9.734;2023-06-10T10:23:29;101381.56;;;21.55;52.28
75192;BME280;63771;52.580;9.734;2023-06-10T10:25:57;101373.28;;;21.62;51.95
75192;BME280;63771;52.580;9.734;2023-06-10T10:28:29;101372.44;;;21.63;52.47
75192;BME280;63771;52.580;9.734;2023-06-10T10:31:08;101368.38;;;21.68;50.93
75192;BME280;63771;52.580;9.734;2023-06-10T10:33:48;101371.31;;;21.76;52.31
75192;BME280;63771;52.580;9.734;2023-06-10T10:36:16;101366.50;;;21.83;51.98
75192;BME280;63771;52.580;9.734;2023-06-10T10:38:45;101365.41;;;21.98;52.33
75192;BME280;63771;52.580;9.734;2023-06-10T10:41:13;101368.38;;;22.05;52.72
75192;BME280;63771;52.580;9.734;2023-06-10T10:43:39;101363.47;;;22.11;52.66
75192;BME280;63771;52.580;9.734;2023-06-10T10:46:12;101367.44;;;22.23;52.89
75192;BME280;63771;52.580;9.734;2023-06-10T10:48:38;101361.94;;;22.34;53.26
75192;BME280;63771;52.580;9.734;2023-06-10T10:51:06;101360.06;;;22.51;51.82
75192;BME280;63771;52.580;9.734;2023-06-10T10:53:31;101361.38;;;22.61;50.97
75192;BME280;63771;52.580;9.734;2023-06-10T10:56:05;101357.63;;;22.75;51.21
75192;BME280;63771;52.580;9.734;2023-06-10T10:58:31;101359.88;;;22.87;51.64
75192;BME280;63771;52.580;9.734;2023-06-10T11:00:59;101354.56;;;23.05;51.13
75192;BME280;63771;52.580;9.734;2023-06-10T11:03:29;101360.34;;;23.18;49.73
75192;BME280;63771;52.580;9.734;2023-06-10T11:05:58;101349.53;;;23.30;49.97
75192;BME280;63771;52.580;9.734;2023-06-10T11:10:57;101363.41;;;23.52;47.99
75192;BME280;63771;52.580;9.734;2023-06-10T11:13:23;101359.28;;;23.57;48.17
75192;BME280;63771;52.580;9.734;2023-06-10T11:15:50;101362.03;;;23.60;50.19
75192;BME280;63771;52.580;9.734;2023-06-10T11:18:26;101360.63;;;23.68;47.49
75192;BME280;63771;52.580;9.734;2023-06-10T11:21:03;101360.19;;;23.80;47.82
75192;BME280;63771;52.580;9.734;2023-06-10T11:29:01;101351.91;;;23.90;48.53
75192;BME280;63771;52.580;9.734;2023-06-10T11:31:29;101349.69;;;24.01;49.16
75192;BME280;63771;52.580;9.734;2023-06-10T11:33:58;101340.22;;;24.03;48.31
75192;BME280;63771;52.580;9.734;2023-06-10T11:36:24;101342.00;;;24.04;49.30
75192;BME280;63771;52.580;9.734;2023-06-10T11:38:55;101340.31;;;24.06;49.30
75192;BME280;63771;52.580;9.734;2023-06-10T11:41:21;101336.97;;;24.08;49.50
75192;BME280;63771;52.580;9.734;2023-06-10T11:43:47;101339.84;;;24.16;48.54
75192;BME280;63771;52.580;9.734;2023-06-10T11:46:13;101331.44;;;24.23;49.74
75192;BME280;63771;52.580;9.734;2023-06-10T11:48:39;101326.59;;;24.34;47.95
75192;BME280;63771;52.580;9.734;2023-06-10T11:51:07;101330.22;;;24.37;48.42
75192;BME280;63771;52.580;9.734;2023-06-10T11:53:33;101322.50;;;24.40;48.59
75192;BME280;63771;52.580;9.734;2023-06-10T11:55:59;101324.31;;;24.43;50.20
75192;BME280;63771;52.580;9.734;2023-06-10T11:58:24;101314.00;;;24.46;50.52
75192;BME280;63771;52.580;9.734;2023-06-10T12:00:52;101327.41;;;24.57;49.91
75192;BME280;63771;52.580;9.734;2023-06-10T12:03:24;101320.75;;;24.65;49.43
75192;BME280;63771;52.580;9.734;2023-06-10T12:06:03;101316.06;;;24.80;47.23
75192;BME280;63771;52.580;9.734;2023-06-10T12:08:29;101315.09;;;24.78;47.82
75192;BME280;63771;52.580;9.734;2023-06-10T12:10:55;101313.50;;;24.82;48.88
75192;BME280;63771;52.580;9.734;2023-06-10T12:13:21;101316.47;;;24.92;49.29
75192;BME280;63771;52.580;9.734;2023-06-10T12:15:48;101312.63;;;25.07;49.62
75192;BME280;63771;52.580;9.734;2023-06-10T12:18:21;101317.31;;;25.17;49.25
75192;BME280;63771;52.580;9.734;2023-06-10T12:20:47;101304.44;;;25.23;48.35
75192;BME280;63771;52.580;9.734;2023-06-10T12:23:14;101306.22;;;25.25;48.37
75192;BME280;63771;52.580;9.734;2023-06-10T12:25:49;101311.91;;;25.39;48.43
75192;BME280;63771;52.580;9.734;2023-06-10T12:28:15;101307.75;;;25.46;49.42
75192;BME280;63771;52.580;9.734;2023-06-10T12:30:41;101306.41;;;25.59;46.82
75192;BME280;63771;52.580;9.734;2023-06-10T12:33:16;101296.00;;;25.60;47.83
75192;BME280;63771;52.580;9.734;2023-06-10T12:35:48;101301.44;;;25.68;46.15
75192;BME280;63771;52.580;9.734;2023-06-10T12:38:13;101303.22;;;25.69;46.79
75192;BME280;63771;52.580;9.734;2023-06-10T12:40:39;101286.72;;;25.71;45.42
75192;BME280;63771;52.580;9.734;2023-06-10T12:43:06;101290.56;;;25.83;43.04
75192;BME280;63771;52.580;9.734;2023-06-10T12:45:35;101288.91;;;25.85;43.75
75192;BME280;63771;52.580;9.734;2023-06-10T12:48:16;101282.81;;;25.84;42.77
75192;BME280;63771;52.580;9.734;2023-06-10T12:50:42;101280.94;;;25.80;43.79
75192;BME280;63771;52.580;9.734;2023-06-10T12:53:08;101270.47;;;25.80;44.33
75192;BME280;63771;52.580;9.734;2023-06-10T12:55:34;101268.88;;;25.85;45.22
75192;BME280;63771;52.580;9.734;2023-06-10T12:58:00;101276.22;;;25.98;44.73
75192;BME280;63771;52.580;9.734;2023-06-10T13:00:26;101272.69;;;25.96;45.50
75192;BME280;63771;52.580;9.734;2023-06-10T13:02:54;101280.56;;;25.98;46.69